sensor_id;sensor_type;location;lat;lon;timestamp;P1;durP1;ratioP1;P2;durP2;ratioP2
6791;SDS011;3433;48.730;9.108;2022-12-10T00:01:17;49.37;;;23.80;;
6791;SDS011;3433;48.730;9.108;2022-12-10T00:04:05;45.50;;;23.40;;
6791;SDS011;3433;48.730;9.108;2022-12-10T00:06:52;46.90;;;24.07;;
6791;SDS011;3433;48.730;9.108;2022-12-10T00:09:39;50.27;;;24.87;;
6791;SDS011;3433;48.730;9.108;2022-12-10T00:12:27;45.03;;;22.87;;
6791;SDS011;3433;48.730;9.108;2022-12-10T00:15:14;49.80;;;23.50;;
6791;SDS011;3433;48.730;9.108;2022-12-10T00:18:03;44.60;;;24.03;;
6791;SDS011;3433;48.730;9.108;2022-12-10T00:20:50;47.10;;;22.23;;
6791;SDS011;3433;48.730;9.108;2022-12-10T00:23:38;49.10;;;24.50;;
6791;SDS011;3433;48.730;9.108;2022-12-10T00:26:26;42.37;;;24.23;;
6791;SDS011;3433;48.730;9.108;2022-12-10T00:29:14;48.70;;;23.47;;
6791;SDS011;3433;48.730;9.108;2022-12-10T00:32:01;46.40;;;23.50;;
6791;SDS011;3433;48.730;9.108;2022-12-10T00:34:52;44.87;;;22.73;;
6791;SDS011;3433;48.730;9.108;2022-12-10T00:37:39;48.17;;;24.47;;
6791;SDS011;3433;48.730;9.108;2022-12-10T00:40:27;45.40;;;22.37;;
6791;SDS011;3433;48.730;9.108;2022-12-10T00:43:14;42.57;;;21.93;;
6791;SDS011;3433;48.730;9.108;2022-12-10T00:46:01;45.37;;;23.40;;
6791;SDS011;3433;48.730;9.108;2022-12-10T00:48:48;49.00;;;23.90;;
6791;SDS011;3433;48.730;9.108;2022-12-10T00:51:37;46.40;;;23.50;;
6791;SDS011;3433;48.730;9.108;2022-12-10T00:54:25;46.83;;;22.27;;
6791;SDS011;3433;48.730;9.108;2022-12-10T00:57:12;43.30;;;21.93;;
6791;SDS011;3433;48.730;9.108;2022-12-10T01:00:00;39.53;;;21.20;;
6791;SDS011;3433;48.730;9.108;2022-12-10T01:02:47;44.50;;;23.30;;
6791;SDS011;3433;48.730;9.108;2022-12-10T01:05:34;42.83;;;21.70;;
6791;SDS011;3433;48.730;9.108;2022-12-10T01:08:23;39.00;;;21.20;;
6791;SDS011;3433;48.730;9.108;2022-12-10T01:11:10;44.80;;;22.67;;
6791;SDS011;3433;48.730;9.108;2022-12-10T01:13:59;43.30;;;20.77;;
6791;SDS011;3433;48.730;9.108;2022-12-10T01:16:47;47.17;;;23.13;;
6791;SDS011;3433;48.730;9.108;2022-12-10T01:19:34;75.37;;;25.57;;
6791;SDS011;3433;48.730;9.108;2022-12-10T01:22:22;46.33;;;22.47;;
6791;SDS011;3433;48.730;9.108;2022-12-10T01:25:10;42.87;;;23.37;;
6791;SDS011;3433;48.730;9.108;2022-12-10T01:27:57;38.40;;;21.87;;
6791;SDS011;3433;48.730;9.108;2022-12-10T01:30:44;46.37;;;22.80;;
6791;SDS011;3433;48.730;9.108;2022-12-10T01:33:34;43.63;;;22.90;;
6791;SDS011;3433;48.730;9.108;2022-12-10T01:36:22;39.50;;;20.93;;
6791;SDS011;3433;48.730;9.108;2022-12-10T01:39:12;45.43;;;23.70;;
6791;SDS011;3433;48.730;9.108;2022-12-10T01:42:01;39.30;;;21.67;;
6791;SDS011;3433;48.730;9.108;2022-12-10T01:45:04;43.03;;;22.83;;
6791;SDS011;3433;48.730;9.108;2022-12-10T01:47:54;44.87;;;22.73;;
6791;SDS011;3433;48.730;9.108;2022-12-10T01:50:41;41.67;;;22.03;;
6791;SDS011;3433;48.730;9.108;2022-12-10T01:53:28;42.43;;;22.70;;
6791;SDS011;3433;48.730;9.108;2022-12-10T01:56:16;41.73;;;21.27;;
6791;SDS011;3433;48.730;9.108;2022-12-10T01:59:06;41.13;;;22.00;;
6791;SDS011;3433;48.730;9.108;2022-12-10T02:01:56;40.63;;;21.20;;
6791;SDS011;3433;48.730;9.108;2022-12-10T02:04:50;38.93;;;21.60;;
6791;SDS011;3433;48.730;9.108;2022-12-10T02:07:51;42.90;;;22.43;;
6791;SDS011;3433;48.730;9.108;2022-12-10T02:10:49;44.13;;;21.60;;
6791;SDS011;3433;48.730;9.108;2022-12-10T02:13:49;50.73;;;23.63;;
6791;SDS011;3433;48.730;9.108;2022-12-10T02:16:46;40.23;;;21.37;;
6791;SDS011;3433;48.730;9.108;2022-12-10T02:22:49;41.90;;;21.57;;
6791;SDS011;3433;48.730;9.108;2022-12-10T02:25:41;41.67;;;21.37;;
6791;SDS011;3433;48.730;9.108;2022-12-10T02:28:34;41.37;;;23.30;;
6791;SDS011;3433;48.730;9.108;2022-12-10T02:31:28;47.73;;;21.03;;
6791;SDS011;3433;48.730;9.108;2022-12-10T02:34:17;38.70;;;21.20;;
6791;SDS011;3433;48.730;9.108;2022-12-10T02:37:08;38.80;;;20.43;;
6791;SDS011;3433;48.730;9.108;2022-12-10T02:39:59;44.33;;;22.30;;
6791;SDS011;3433;48.730;9.108;2022-12-10T02:42:51;43.73;;;21.00;;
6791;SDS011;3433;48.730;9.108;2022-12-10T02:45:39;37.67;;;21.00;;
6791;SDS011;3433;48.730;9.108;2022-12-10T02:48:29;37.20;;;20.27;;
6791;SDS011;3433;48.730;9.108;2022-12-10T02:51:17;31.53;;;19.47;;
6791;SDS011;3433;48.730;9.108;2022-12-10T02:54:07;40.43;;;21.13;;
6791;SDS011;3433;48.730;9.108;2022-12-10T02:57:30;41.67;;;20.50;;
6791;SDS011;3433;48.730;9.108;2022-12-10T03:00:23;38.23;;;20.40;;
6791;SDS011;3433;48.730;9.108;2022-12-10T03:03:15;43.57;;;20.90;;
6791;SDS011;3433;48.730;9.108;2022-12-10T03:06:16;37.13;;;20.73;;
6791;SDS011;3433;48.730;9.108;2022-12-10T03:09:08;38.77;;;21.10;;
6791;SDS011;3433;48.730;9.108;2022-12-10T03:12:00;39.90;;;21.20;;
6791;SDS011;3433;48.730;9.108;2022-12-10T03:14:53;41.97;;;22.57;;
6791;SDS011;3433;48.730;9.108;2022-12-10T03:17:45;40.17;;;21.17;;
6791;SDS011;3433;48.730;9.108;2022-12-10T03:20:36;43.83;;;21.27;;
6791;SDS011;3433;48.730;9.108;2022-12-10T03:23:26;40.87;;;20.33;;
6791;SDS011;3433;48.730;9.108;2022-12-10T03:26:16;49.87;;;20.53;;
6791;SDS011;3433;48.730;9.108;2022-12-10T03:29:05;41.83;;;21.03;;
6791;SDS011;3433;48.730;9.108;2022-12-10T03:31:54;40.47;;;22.37;;
6791;SDS011;3433;48.730;9.108;2022-12-10T03:34:43;39.63;;;22.43;;
6791;SDS011;3433;48.730;9.108;2022-12-10T03:37:31;38.07;;;20.07;;
6791;SDS011;3433;48.730;9.108;2022-12-10T03:40:21;36.43;;;20.90;;
6791;SDS011;3433;48.730;9.108;2022-12-10T03:43:11;36.60;;;19.40;;
6791;SDS011;3433;48.730;9.108;2022-12-10T03:45:59;38.17;;;19.60;;
6791;SDS011;3433;48.730;9.108;2022-12-10T03:48:46;44.37;;;20.77;;
6791;SDS011;3433;48.730;9.108;2022-12-10T03:51:33;39.13;;;20.63;;
6791;SDS011;3433;48.730;9.108;2022-12-10T03:54:21;40.60;;;21.00;;
6791;SDS011;3433;48.730;9.108;2022-12-10T03:57:09;37.90;;;20.60;;
6791;SDS011;3433;48.730;9.108;2022-12-10T03:59:57;37.30;;;19.93;;
6791;SDS011;3433;48.730;9.108;2022-12-10T04:02:44;38.00;;;21.83;;
6791;SDS011;3433;48.730;9.108;2022-12-10T04:05:31;33.87;;;18.53;;
6791;SDS011;3433;48.730;9.108;2022-12-10T04:08:18;40.50;;;22.10;;
6791;SDS011;3433;48.730;9.108;2022-12-10T04:11:06;43.50;;;21.20;;
6791;SDS011;3433;48.730;9.108;2022-12-10T04:13:56;39.83;;;21.03;;
6791;SDS011;3433;48.730;9.108;2022-12-10T04:17:01;36.23;;;20.73;;
6791;SDS011;3433;48.730;9.108;2022-12-10T04:19:48;38.73;;;20.10;;
6791;SDS011;3433;48.730;9.108;2022-12-10T04:22:36;38.43;;;20.73;;
6791;SDS011;3433;48.730;9.108;2022-12-10T04:25:40;40.87;;;21.03;;
6791;SDS011;3433;48.730;9.108;2022-12-10T04:28:45;39.40;;;20.10;;
6791;SDS011;3433;48.730;9.108;2022-12-10T04:31:33;37.80;;;19.90;;
6791;SDS011;3433;48.730;9.108;2022-12-10T04:34:20;36.20;;;20.37;;
6791;SDS011;3433;48.730;9.108;2022-12-10T04:37:08;36.43;;;20.37;;
6791;SDS011;3433;48.730;9.108;2022-12-10T04:39:56;35.60;;;19.63;;
6791;SDS011;3433;48.730;9.108;2022-12-10T04:42:43;38.70;;;21.63;;
6791;SDS011;3433;48.730;9.108;2022-12-10T04:45:33;42.37;;;20.00;;
6791;SDS011;3433;48.730;9.108;2022-12-10T04:48:22;41.07;;;20.27;;
6791;SDS011;3433;48.730;9.108;2022-12-10T04:51:09;37.17;;;19.73;;
6791;SDS011;3433;48.730;9.108;2022-12-10T04:53:56;38.40;;;19.93;;
6791;SDS011;3433;48.730;9.108;2022-12-10T04:56:43;34.97;;;20.37;;
6791;SDS011;3433;48.730;9.108;2022-12-10T04:59:31;39.50;;;20.87;;
6791;SDS011;3433;48.730;9.108;2022-12-10T05:02:18;36.20;;;19.37;;
6791;SDS011;3433;48.730;9.108;2022-12-10T05:05:07;37.30;;;20.20;;
6791;SDS011;3433;48.730;9.108;2022-12-10T05:07:55;36.13;;;19.97;;
6791;SDS011;3433;48.730;9.108;2022-12-10T05:10:42;38.70;;;21.80;;
6791;SDS011;3433;48.730;9.108;2022-12-10T05:13:29;35.60;;;20.30;;
6791;SDS011;3433;48.730;9.108;2022-12-10T05:16:17;41.33;;;22.60;;
6791;SDS011;3433;48.730;9.108;2022-12-10T05:19:05;36.60;;;19.87;;
6791;SDS011;3433;48.730;9.108;2022-12-10T05:21:54;37.37;;;19.10;;
6791;SDS011;3433;48.730;9.108;2022-12-10T05:24:59;37.30;;;19.53;;
6791;SDS011;3433;48.730;9.108;2022-12-10T05:27:46;38.63;;;20.20;;
6791;SDS011;3433;48.730;9.108;2022-12-10T05:30:34;40.63;;;23.30;;
6791;SDS011;3433;48.730;9.108;2022-12-10T05:33:21;38.33;;;20.20;;
6791;SDS011;3433;48.730;9.108;2022-12-10T05:36:09;38.63;;;20.90;;
6791;SDS011;3433;48.730;9.108;2022-12-10T05:38:59;36.90;;;19.93;;
6791;SDS011;3433;48.730;9.108;2022-12-10T05:41:47;40.30;;;21.53;;
6791;SDS011;3433;48.730;9.108;2022-12-10T05:44:34;37.50;;;21.07;;
6791;SDS011;3433;48.730;9.108;2022-12-10T05:47:21;42.47;;;19.67;;
6791;SDS011;3433;48.730;9.108;2022-12-10T05:50:08;39.60;;;20.70;;
6791;SDS011;3433;48.730;9.108;2022-12-10T05:52:56;35.40;;;19.20;;
6791;SDS011;3433;48.730;9.108;2022-12-10T05:55:44;42.77;;;20.83;;
6791;SDS011;3433;48.730;9.108;2022-12-10T05:58:32;39.53;;;21.00;;
6791;SDS011;3433;48.730;9.108;2022-12-10T06:01:20;38.40;;;20.50;;
6791;SDS011;3433;48.730;9.108;2022-12-10T06:04:08;36.63;;;19.07;;
6791;SDS011;3433;48.730;9.108;2022-12-10T06:06:55;39.93;;;20.43;;
6791;SDS011;3433;48.730;9.108;2022-12-10T06:09:43;40.40;;;20.93;;
6791;SDS011;3433;48.730;9.108;2022-12-10T06:12:31;37.17;;;20.50;;
6791;SDS011;3433;48.730;9.108;2022-12-10T06:15:19;42.53;;;21.57;;
6791;SDS011;3433;48.730;9.108;2022-12-10T06:18:06;41.90;;;20.40;;
6791;SDS011;3433;48.730;9.108;2022-12-10T06:20:53;39.70;;;20.80;;
6791;SDS011;3433;48.730;9.108;2022-12-10T06:23:41;40.13;;;21.53;;
6791;SDS011;3433;48.730;9.108;2022-12-10T06:26:28;38.83;;;20.50;;
6791;SDS011;3433;48.730;9.108;2022-12-10T06:29:17;42.67;;;21.93;;
6791;SDS011;3433;48.730;9.108;2022-12-10T06:32:04;38.30;;;20.60;;
6791;SDS011;3433;48.730;9.108;2022-12-10T06:34:52;40.67;;;20.93;;
6791;SDS011;3433;48.730;9.108;2022-12-10T06:37:39;42.10;;;21.30;;
6791;SDS011;3433;48.730;9.108;2022-12-10T06:40:26;37.20;;;20.80;;
6791;SDS011;3433;48.730;9.108;2022-12-10T06:43:14;39.47;;;20.40;;
6791;SDS011;3433;48.730;9.108;2022-12-10T06:46:05;48.20;;;22.20;;
6791;SDS011;3433;48.730;9.108;2022-12-10T06:48:54;41.13;;;20.93;;
6791;SDS011;3433;48.730;9.108;2022-12-10T06:51:41;38.47;;;19.80;;
6791;SDS011;3433;48.730;9.108;2022-12-10T06:54:29;46.13;;;21.83;;
6791;SDS011;3433;48.730;9.108;2022-12-10T06:57:16;44.60;;;22.70;;
6791;SDS011;3433;48.730;9.108;2022-12-10T07:00:04;40.60;;;21.53;;
6791;SDS011;3433;48.730;9.108;2022-12-10T07:02:53;38.50;;;21.17;;
6791;SDS011;3433;48.730;9.108;2022-12-10T07:05:40;42.60;;;21.40;;
6791;SDS011;3433;48.730;9.108;2022-12-10T07:08:27;42.90;;;22.50;;
6791;SDS011;3433;48.730;9.108;2022-12-10T07:11:16;42.50;;;21.53;;
6791;SDS011;3433;48.730;9.108;2022-12-10T07:14:05;41.90;;;21.80;;
6791;SDS011;3433;48.730;9.108;2022-12-10T07:16:52;40.83;;;20.93;;
6791;SDS011;3433;48.730;9.108;2022-12-10T07:19:41;49.10;;;23.07;;
6791;SDS011;3433;48.730;9.108;2022-12-10T07:22:28;41.17;;;21.37;;
6791;SDS011;3433;48.730;9.108;2022-12-10T07:25:15;41.63;;;21.47;;
6791;SDS011;3433;48.730;9.108;2022-12-10T07:28:03;41.60;;;20.93;;
6791;SDS011;3433;48.730;9.108;2022-12-10T07:30:50;37.63;;;20.70;;
6791;SDS011;3433;48.730;9.108;2022-12-10T07:33:37;43.17;;;21.47;;
6791;SDS011;3433;48.730;9.108;2022-12-10T07:36:26;37.43;;;19.40;;
6791;SDS011;3433;48.730;9.108;2022-12-10T07:39:14;38.83;;;21.53;;
6791;SDS011;3433;48.730;9.108;2022-12-10T07:42:03;39.83;;;21.57;;
6791;SDS011;3433;48.730;9.108;2022-12-10T07:44:50;43.43;;;22.93;;
6791;SDS011;3433;48.730;9.108;2022-12-10T07:47:38;38.73;;;21.07;;
6791;SDS011;3433;48.730;9.108;2022-12-10T07:50:25;43.53;;;21.87;;
6791;SDS011;3433;48.730;9.108;2022-12-10T07:53:14;43.20;;;21.50;;
6791;SDS011;3433;48.730;9.108;2022-12-10T07:56:01;39.73;;;21.17;;
6791;SDS011;3433;48.730;9.108;2022-12-10T07:58:49;41.83;;;21.90;;
6791;SDS011;3433;48.730;9.108;2022-12-10T08:01:37;46.20;;;22.17;;
6791;SDS011;3433;48.730;9.108;2022-12-10T08:04:27;52.03;;;23.70;;
6791;SDS011;3433;48.730;9.108;2022-12-10T08:07:15;46.60;;;22.20;;
6791;SDS011;3433;48.730;9.108;2022-12-10T08:10:04;44.10;;;21.47;;
6791;SDS011;3433;48.730;9.108;2022-12-10T08:12:52;40.93;;;21.60;;
6791;SDS011;3433;48.730;9.108;2022-12-10T08:15:39;39.20;;;22.00;;
6791;SDS011;3433;48.730;9.108;2022-12-10T08:18:26;39.53;;;20.63;;
6791;SDS011;3433;48.730;9.108;2022-12-10T08:21:14;39.23;;;21.37;;
6791;SDS011;3433;48.730;9.108;2022-12-10T08:24:02;40.70;;;22.00;;
6791;SDS011;3433;48.730;9.108;2022-12-10T08:26:51;36.67;;;20.23;;
6791;SDS011;3433;48.730;9.108;2022-12-10T08:29:38;35.70;;;20.10;;
6791;SDS011;3433;48.730;9.108;2022-12-10T08:32:25;45.50;;;22.40;;
6791;SDS011;3433;48.730;9.108;2022-12-10T08:35:13;39.70;;;19.47;;
6791;SDS011;3433;48.730;9.108;2022-12-10T08:38:00;39.73;;;19.70;;
6791;SDS011;3433;48.730;9.108;2022-12-10T08:40:47;36.20;;;19.80;;
6791;SDS011;3433;48.730;9.108;2022-12-10T08:43:36;46.30;;;21.23;;
6791;SDS011;3433;48.730;9.108;2022-12-10T08:46:23;39.57;;;21.10;;
6791;SDS011;3433;48.730;9.108;2022-12-10T08:49:11;40.70;;;19.70;;
6791;SDS011;3433;48.730;9.108;2022-12-10T08:51:59;43.47;;;20.77;;
6791;SDS011;3433;48.730;9.108;2022-12-10T08:54:46;38.07;;;20.50;;
6791;SDS011;3433;48.730;9.108;2022-12-10T08:57:33;41.83;;;21.60;;
6791;SDS011;3433;48.730;9.108;2022-12-10T09:00:22;38.07;;;20.27;;
6791;SDS011;3433;48.730;9.108;2022-12-10T09:03:09;40.00;;;21.53;;
6791;SDS011;3433;48.730;9.108;2022-12-10T09:05:59;41.30;;;21.03;;
6791;SDS011;3433;48.730;9.108;2022-12-10T09:08:48;39.07;;;20.50;;
6791;SDS011;3433;48.730;9.108;2022-12-10T09:11:36;40.67;;;20.77;;
6791;SDS011;3433;48.730;9.108;2022-12-10T09:14:23;45.90;;;22.77;;
6791;SDS011;3433;48.730;9.108;2022-12-10T09:17:12;35.90;;;20.20;;
6791;SDS011;3433;48.730;9.108;2022-12-10T09:19:59;38.57;;;20.60;;
6791;SDS011;3433;48.730;9.108;2022-12-10T09:22:46;39.27;;;20.37;;
6791;SDS011;3433;48.730;9.108;2022-12-10T09:25:33;35.70;;;19.70;;
6791;SDS011;3433;48.730;9.108;2022-12-10T09:28:21;34.47;;;18.27;;
6791;SDS011;3433;48.730;9.108;2022-12-10T09:31:09;42.80;;;20.40;;
6791;SDS011;3433;48.730;9.108;2022-12-10T09:33:58;37.60;;;20.17;;
6791;SDS011;3433;48.730;9.108;2022-12-10T09:36:45;36.23;;;19.83;;
6791;SDS011;3433;48.730;9.108;2022-12-10T09:39:33;39.93;;;21.00;;
6791;SDS011;3433;48.730;9.108;2022-12-10T09:42:23;41.20;;;20.40;;
6791;SDS011;3433;48.730;9.108;2022-12-10T09:45:21;37.50;;;20.97;;
6791;SDS011;3433;48.730;9.108;2022-12-10T09:48:15;38.50;;;20.03;;
6791;SDS011;3433;48.730;9.108;2022-12-10T09:51:10;40.80;;;20.87;;
6791;SDS011;3433;48.730;9.108;2022-12-10T09:54:04;41.13;;;21.77;;
6791;SDS011;3433;48.730;9.108;2022-12-10T09:57:04;34.37;;;18.97;;
6791;SDS011;3433;48.730;9.108;2022-12-10T09:59:53;38.80;;;20.20;;
6791;SDS011;3433;48.730;9.108;2022-12-10T10:02:41;38.70;;;20.13;;
6791;SDS011;3433;48.730;9.108;2022-12-10T10:05:28;39.43;;;21.07;;
6791;SDS011;3433;48.730;9.108;2022-12-10T10:08:22;37.10;;;19.90;;
6791;SDS011;3433;48.730;9.108;2022-12-10T10:11:14;38.07;;;19.80;;
6791;SDS011;3433;48.730;9.108;2022-12-10T10:14:05;41.67;;;21.37;;
6791;SDS011;3433;48.730;9.108;2022-12-10T10:16:59;45.77;;;21.53;;
6791;SDS011;3433;48.730;9.108;2022-12-10T10:19:49;41.20;;;21.57;;
6791;SDS011;3433;48.730;9.108;2022-12-10T10:22:37;36.47;;;19.63;;
6791;SDS011;3433;48.730;9.108;2022-12-10T10:25:26;38.20;;;20.70;;
6791;SDS011;3433;48.730;9.108;2022-12-10T10:28:18;41.57;;;22.40;;
6791;SDS011;3433;48.730;9.108;2022-12-10T10:31:09;49.67;;;22.70;;
6791;SDS011;3433;48.730;9.108;2022-12-10T10:34:05;42.43;;;20.60;;
6791;SDS011;3433;48.730;9.108;2022-12-10T10:37:00;36.40;;;20.40;;
6791;SDS011;3433;48.730;9.108;2022-12-10T10:39:50;39.00;;;21.67;;
6791;SDS011;3433;48.730;9.108;2022-12-10T10:42:40;45.30;;;21.00;;
6791;SDS011;3433;48.730;9.108;2022-12-10T10:45:36;37.67;;;20.87;;
6791;SDS011;3433;48.730;9.108;2022-12-10T10:48:26;39.13;;;19.77;;
6791;SDS011;3433;48.730;9.108;2022-12-10T10:51:15;17.30;;;9.57;;
6791;SDS011;3433;48.730;9.108;2022-12-10T10:54:08;61.27;;;26.47;;
6791;SDS011;3433;48.730;9.108;2022-12-10T10:56:55;70.27;;;27.23;;
6791;SDS011;3433;48.730;9.108;2022-12-10T10:59:44;193.70;;;56.90;;
6791;SDS011;3433;48.730;9.108;2022-12-10T11:02:33;86.80;;;36.23;;
6791;SDS011;3433;48.730;9.108;2022-12-10T11:05:23;41.03;;;22.47;;
6791;SDS011;3433;48.730;9.108;2022-12-10T11:08:13;38.20;;;20.40;;
6791;SDS011;3433;48.730;9.108;2022-12-10T11:11:04;35.13;;;19.87;;
6791;SDS011;3433;48.730;9.108;2022-12-10T11:14:03;35.47;;;19.37;;
6791;SDS011;3433;48.730;9.108;2022-12-10T11:17:03;33.77;;;17.97;;
6791;SDS011;3433;48.730;9.108;2022-12-10T11:20:13;33.30;;;19.20;;
6791;SDS011;3433;48.730;9.108;2022-12-10T11:23:08;35.27;;;19.67;;
6791;SDS011;3433;48.730;9.108;2022-12-10T11:25:58;34.67;;;19.00;;
6791;SDS011;3433;48.730;9.108;2022-12-10T11:28:57;33.57;;;19.30;;
6791;SDS011;3433;48.730;9.108;2022-12-10T11:31:58;31.97;;;18.73;;
6791;SDS011;3433;48.730;9.108;2022-12-10T11:35:01;39.30;;;20.80;;
6791;SDS011;3433;48.730;9.108;2022-12-10T11:37:58;36.00;;;18.90;;
6791;SDS011;3433;48.730;9.108;2022-12-10T11:40:55;30.90;;;18.00;;
6791;SDS011;3433;48.730;9.108;2022-12-10T11:44:00;35.70;;;19.80;;
6791;SDS011;3433;48.730;9.108;2022-12-10T11:47:12;35.13;;;18.90;;
6791;SDS011;3433;48.730;9.108;2022-12-10T11:50:12;35.37;;;17.80;;
6791;SDS011;3433;48.730;9.108;2022-12-10T11:53:13;31.80;;;18.80;;
6791;SDS011;3433;48.730;9.108;2022-12-10T11:56:20;34.87;;;18.97;;
6791;SDS011;3433;48.730;9.108;2022-12-10T11:59:15;32.13;;;19.00;;
6791;SDS011;3433;48.730;9.108;2022-12-10T12:02:19;35.67;;;20.63;;
6791;SDS011;3433;48.730;9.108;2022-12-10T12:05:41;41.00;;;20.80;;
6791;SDS011;3433;48.730;9.108;2022-12-10T12:08:41;36.90;;;20.27;;
6791;SDS011;3433;48.730;9.108;2022-12-10T12:14:46;35.67;;;20.27;;
6791;SDS011;3433;48.730;9.108;2022-12-10T12:17:40;39.87;;;21.43;;
6791;SDS011;3433;48.730;9.108;2022-12-10T12:20:32;36.60;;;18.73;;
6791;SDS011;3433;48.730;9.108;2022-12-10T12:23:24;39.00;;;20.03;;
6791;SDS011;3433;48.730;9.108;2022-12-10T12:26:16;35.23;;;19.20;;
6791;SDS011;3433;48.730;9.108;2022-12-10T12:29:11;33.70;;;18.60;;
6791;SDS011;3433;48.730;9.108;2022-12-10T12:32:08;32.10;;;18.57;;
6791;SDS011;3433;48.730;9.108;2022-12-10T12:35:04;36.90;;;18.07;;
6791;SDS011;3433;48.730;9.108;2022-12-10T12:37:57;30.10;;;16.50;;
6791;SDS011;3433;48.730;9.108;2022-12-10T12:40:48;32.77;;;18.60;;
6791;SDS011;3433;48.730;9.108;2022-12-10T12:43:40;38.40;;;21.80;;
6791;SDS011;3433;48.730;9.108;2022-12-10T12:46:37;33.40;;;19.13;;
6791;SDS011;3433;48.730;9.108;2022-12-10T12:49:28;30.27;;;17.60;;
6791;SDS011;3433;48.730;9.108;2022-12-10T12:52:24;36.37;;;19.17;;
6791;SDS011;3433;48.730;9.108;2022-12-10T12:55:19;32.40;;;17.03;;
6791;SDS011;3433;48.730;9.108;2022-12-10T12:58:15;26.87;;;16.63;;
6791;SDS011;3433;48.730;9.108;2022-12-10T13:01:13;29.80;;;16.60;;
6791;SDS011;3433;48.730;9.108;2022-12-10T13:04:07;30.30;;;17.00;;
6791;SDS011;3433;48.730;9.108;2022-12-10T13:10:23;30.83;;;16.80;;
6791;SDS011;3433;48.730;9.108;2022-12-10T13:13:22;25.97;;;15.57;;
6791;SDS011;3433;48.730;9.108;2022-12-10T13:16:33;27.63;;;15.87;;
6791;SDS011;3433;48.730;9.108;2022-12-10T13:19:25;29.07;;;16.23;;
6791;SDS011;3433;48.730;9.108;2022-12-10T13:25:41;32.50;;;17.20;;
6791;SDS011;3433;48.730;9.108;2022-12-10T13:28:48;30.70;;;15.80;;
6791;SDS011;3433;48.730;9.108;2022-12-10T13:31:36;31.60;;;16.57;;
6791;SDS011;3433;48.730;9.108;2022-12-10T13:34:34;28.63;;;16.90;;
6791;SDS011;3433;48.730;9.108;2022-12-10T13:37:29;33.17;;;17.50;;
6791;SDS011;3433;48.730;9.108;2022-12-10T13:40:25;32.07;;;16.57;;
6791;SDS011;3433;48.730;9.108;2022-12-10T13:43:37;29.83;;;15.27;;
6791;SDS011;3433;48.730;9.108;2022-12-10T13:46:53;33.27;;;16.53;;
6791;SDS011;3433;48.730;9.108;2022-12-10T13:49:46;34.80;;;17.23;;
6791;SDS011;3433;48.730;9.108;2022-12-10T13:52:51;32.67;;;16.40;;
6791;SDS011;3433;48.730;9.108;2022-12-10T13:55:48;31.47;;;17.67;;
6791;SDS011;3433;48.730;9.108;2022-12-10T13:58:42;31.17;;;17.03;;
6791;SDS011;3433;48.730;9.108;2022-12-10T14:01:38;29.10;;;16.90;;
6791;SDS011;3433;48.730;9.108;2022-12-10T14:04:42;35.27;;;17.20;;
6791;SDS011;3433;48.730;9.108;2022-12-10T14:07:44;34.90;;;16.90;;
6791;SDS011;3433;48.730;9.108;2022-12-10T14:10:34;28.63;;;15.47;;
6791;SDS011;3433;48.730;9.108;2022-12-10T14:13:25;32.27;;;16.23;;
6791;SDS011;3433;48.730;9.108;2022-12-10T14:16:18;33.37;;;15.60;;
6791;SDS011;3433;48.730;9.108;2022-12-10T14:19:11;27.80;;;16.50;;
6791;SDS011;3433;48.730;9.108;2022-12-10T14:22:03;34.70;;;17.93;;
6791;SDS011;3433;48.730;9.108;2022-12-10T14:24:52;31.03;;;16.83;;
6791;SDS011;3433;48.730;9.108;2022-12-10T14:27:39;28.67;;;16.07;;
6791;SDS011;3433;48.730;9.108;2022-12-10T14:30:28;29.87;;;16.47;;
6791;SDS011;3433;48.730;9.108;2022-12-10T14:33:16;31.77;;;16.17;;
6791;SDS011;3433;48.730;9.108;2022-12-10T14:36:19;29.93;;;14.83;;
6791;SDS011;3433;48.730;9.108;2022-12-10T14:39:12;29.47;;;16.50;;
6791;SDS011;3433;48.730;9.108;2022-12-10T14:42:02;25.67;;;15.33;;
6791;SDS011;3433;48.730;9.108;2022-12-10T14:44:54;29.13;;;15.57;;
6791;SDS011;3433;48.730;9.108;2022-12-10T14:47:46;33.70;;;16.87;;
6791;SDS011;3433;48.730;9.108;2022-12-10T14:50:34;30.80;;;15.33;;
6791;SDS011;3433;48.730;9.108;2022-12-10T14:53:24;29.87;;;16.07;;
6791;SDS011;3433;48.730;9.108;2022-12-10T14:56:14;26.17;;;14.97;;
6791;SDS011;3433;48.730;9.108;2022-12-10T14:59:09;27.77;;;14.37;;
6791;SDS011;3433;48.730;9.108;2022-12-10T15:02:01;26.90;;;13.93;;
6791;SDS011;3433;48.730;9.108;2022-12-10T15:05:00;26.77;;;13.53;;
6791;SDS011;3433;48.730;9.108;2022-12-10T15:07:48;28.03;;;14.47;;
6791;SDS011;3433;48.730;9.108;2022-12-10T15:10:41;31.47;;;15.00;;
6791;SDS011;3433;48.730;9.108;2022-12-10T15:13:32;28.30;;;14.10;;
6791;SDS011;3433;48.730;9.108;2022-12-10T15:16:27;27.00;;;14.47;;
6791;SDS011;3433;48.730;9.108;2022-12-10T15:19:18;27.90;;;14.70;;
6791;SDS011;3433;48.730;9.108;2022-12-10T15:22:16;31.87;;;15.10;;
6791;SDS011;3433;48.730;9.108;2022-12-10T15:25:13;31.03;;;16.67;;
6791;SDS011;3433;48.730;9.108;2022-12-10T15:28:20;52.97;;;23.80;;
6791;SDS011;3433;48.730;9.108;2022-12-10T15:31:10;36.87;;;23.57;;
6791;SDS011;3433;48.730;9.108;2022-12-10T15:34:00;31.17;;;16.50;;
6791;SDS011;3433;48.730;9.108;2022-12-10T15:36:52;27.20;;;15.17;;
6791;SDS011;3433;48.730;9.108;2022-12-10T15:39:45;27.27;;;14.63;;
6791;SDS011;3433;48.730;9.108;2022-12-10T15:42:38;32.30;;;15.60;;
6791;SDS011;3433;48.730;9.108;2022-12-10T15:45:27;29.17;;;13.87;;
6791;SDS011;3433;48.730;9.108;2022-12-10T15:48:26;31.23;;;15.53;;
6791;SDS011;3433;48.730;9.108;2022-12-10T15:51:15;30.57;;;15.47;;
6791;SDS011;3433;48.730;9.108;2022-12-10T15:54:12;30.03;;;14.73;;
6791;SDS011;3433;48.730;9.108;2022-12-10T15:57:11;29.07;;;14.27;;
6791;SDS011;3433;48.730;9.108;2022-12-10T16:00:01;29.83;;;14.87;;
6791;SDS011;3433;48.730;9.108;2022-12-10T16:02:51;29.73;;;15.87;;
6791;SDS011;3433;48.730;9.108;2022-12-10T16:05:40;31.17;;;16.30;;
6791;SDS011;3433;48.730;9.108;2022-12-10T16:08:29;26.73;;;14.50;;
6791;SDS011;3433;48.730;9.108;2022-12-10T16:11:20;28.73;;;15.47;;
6791;SDS011;3433;48.730;9.108;2022-12-10T16:14:09;29.50;;;14.80;;
6791;SDS011;3433;48.730;9.108;2022-12-10T16:16:58;24.73;;;13.47;;
6791;SDS011;3433;48.730;9.108;2022-12-10T16:19:45;28.40;;;14.87;;
6791;SDS011;3433;48.730;9.108;2022-12-10T16:22:33;32.10;;;15.53;;
6791;SDS011;3433;48.730;9.108;2022-12-10T16:25:20;27.73;;;15.07;;
6791;SDS011;3433;48.730;9.108;2022-12-10T16:28:10;43.80;;;18.10;;
6791;SDS011;3433;48.730;9.108;2022-12-10T16:31:00;36.20;;;19.17;;
6791;SDS011;3433;48.730;9.108;2022-12-10T16:33:48;33.97;;;17.60;;
6791;SDS011;3433;48.730;9.108;2022-12-10T16:36:37;36.37;;;17.53;;
6791;SDS011;3433;48.730;9.108;2022-12-10T16:39:25;33.17;;;16.13;;
6791;SDS011;3433;48.730;9.108;2022-12-10T16:42:12;28.43;;;13.77;;
6791;SDS011;3433;48.730;9.108;2022-12-10T16:44:59;35.83;;;16.23;;
6791;SDS011;3433;48.730;9.108;2022-12-10T16:47:48;30.27;;;15.10;;
6791;SDS011;3433;48.730;9.108;2022-12-10T16:50:35;26.10;;;13.90;;
6791;SDS011;3433;48.730;9.108;2022-12-10T16:53:27;28.13;;;13.60;;
6791;SDS011;3433;48.730;9.108;2022-12-10T16:56:17;31.23;;;14.30;;
6791;SDS011;3433;48.730;9.108;2022-12-10T16:59:04;27.70;;;14.10;;
6791;SDS011;3433;48.730;9.108;2022-12-10T17:01:51;24.80;;;13.37;;
6791;SDS011;3433;48.730;9.108;2022-12-10T17:04:40;27.53;;;14.13;;
6791;SDS011;3433;48.730;9.108;2022-12-10T17:07:27;25.93;;;12.50;;
6791;SDS011;3433;48.730;9.108;2022-12-10T17:10:14;26.47;;;14.40;;
6791;SDS011;3433;48.730;9.108;2022-12-10T17:13:02;24.10;;;12.80;;
6791;SDS011;3433;48.730;9.108;2022-12-10T17:15:49;34.13;;;15.20;;
6791;SDS011;3433;48.730;9.108;2022-12-10T17:18:37;30.10;;;17.03;;
6791;SDS011;3433;48.730;9.108;2022-12-10T17:21:25;44.70;;;19.67;;
6791;SDS011;3433;48.730;9.108;2022-12-10T17:24:13;51.23;;;22.80;;